Airfield :
LOGIN :

Register | Disclaimer

   EN    FR    IT 

 










Legend :    VFR   Marginal VFR   IFR   Intensive IFR   Very Intensive IFR
Visi :
Ceiling :
>= 8 km
>= 3000ft
5 to 8 km
1000 to 3000 ft
1500m to 5 km
500 to 1000 ft
800 to 1500m
200 to 500 ft
< 800m
< 200 ft
Symbols :   Thunderstorms  Fog  Heavy snow  Heavy precipitations  Wind > 20 kt
SIGMETs :     Misc.  Thunderstorms  Icing  Turbulence  Mountain Waves  Volcanic Ashes







- Airport Elevation : 20 ft
- IATA code : LSI
- Download approach charts


EGPB - Sumburgh

CURRENT METAR :
  • 191420Z 10006KT 1000 R09/1100 BR BKN001 11/10 Q1010 TEMPO 2000 BKN002

EXPIRED METARs :
  • 191350Z 10006KT 1500 BR SCT001 OVC002 11/10 Q1010 TEMPO 1000 BKN001
  • 191320Z 08006KT 9000 SCT003 BKN006 11/10 Q1010 TEMPO BKN004
  • 191250Z 09004KT 8000 SCT002 BKN005 11/10 Q1010 TEMPO BKN004
  • 191220Z 09006KT 3000 -RA OVC002 11/10 Q1010 TEMPO 6000 NSW BKN005
  • 191150Z 10007KT 9999 FEW004 BKN006 11/10 Q1010 TEMPO BKN008

TAF TAF EGPB
Valid from the 19 at 15:00 until the 20 at 00:00 UTC


191404Z 1915/1924 10010KT 9999 SCT007 BKN015
BECMG 1915/1918 16008KT
TEMPO 1915/1924 3000 RADZ BR BKN004
PROB30
TEMPO 1915/1918 1200 BKN001
PROB40
TEMPO 1918/1924 0600 FG BKN001
No reported NOTAMs for that airfield.



MET'MAP, your aeronautical weather chart ! - Copyright ORBIFLY December 2007 - Disclaimer

ORBIFLY MET'MAP TEAM :

Programming & Development : Alexandra Zaïnal
Concept & Development : Baudouin d'Aumeries
Co-Development & Prog : Marc-Olivier Méhu
Technical & hardware support : Manuel Goepfert

Contact : metmap@orbifly.com




SOURCES & CREDITS :

   NOAA